createdAt,value
2018-07-30T00:00:10.816Z,23.70
2018-07-30T00:02:45.354Z,23.80
2018-07-30T00:05:14.251Z,23.80
2018-07-30T00:07:43.139Z,23.80
2018-07-30T00:10:11.578Z,23.80
2018-07-30T00:15:08.428Z,23.70
2018-07-30T00:17:37.058Z,23.70
2018-07-30T00:20:05.491Z,23.70
2018-07-30T00:22:34.038Z,23.70
2018-07-30T00:25:02.467Z,23.70
2018-07-30T00:27:30.991Z,23.70
2018-07-30T00:29:59.398Z,23.70
2018-07-30T00:34:55.967Z,23.70
2018-07-30T00:37:24.387Z,23.70
2018-07-30T00:39:52.794Z,23.70
2018-07-30T00:42:21.939Z,23.70
2018-07-30T00:44:51.001Z,23.70
2018-07-30T00:47:20.146Z,23.70
2018-07-30T00:49:48.869Z,23.70
2018-07-30T00:52:17.360Z,23.70
2018-07-30T00:54:45.793Z,23.70
2018-07-30T00:57:14.210Z,23.60
2018-07-30T00:59:42.513Z,23.50
2018-07-30T01:02:10.988Z,23.30
2018-07-30T01:04:39.407Z,23.20
2018-07-30T01:07:07.935Z,23.30
2018-07-30T01:09:36.375Z,23.20
2018-07-30T01:12:04.828Z,23.20
2018-07-30T01:14:33.231Z,23.20
2018-07-30T01:17:01.625Z,23.30
2018-07-30T01:19:30.019Z,23.10
2018-07-30T01:21:58.391Z,23.10
2018-07-30T01:24:26.805Z,23.00
2018-07-30T01:26:56.261Z,23.00
2018-07-30T01:29:24.693Z,22.90
2018-07-30T01:31:53.141Z,22.90
2018-07-30T01:34:22.649Z,22.80
2018-07-30T01:36:51.533Z,23.00
2018-07-30T01:39:20.678Z,23.10
2018-07-30T01:41:49.894Z,23.00
2018-07-30T01:44:18.265Z,23.00
2018-07-30T01:46:46.713Z,22.90
2018-07-30T01:49:15.068Z,22.80
2018-07-30T01:51:43.519Z,22.90
2018-07-30T01:54:11.970Z,22.80
2018-07-30T01:56:40.431Z,22.80
2018-07-30T01:59:08.781Z,22.70
2018-07-30T02:01:37.194Z,22.60
2018-07-30T02:04:05.666Z,22.60
2018-07-30T02:06:34.142Z,22.60
2018-07-30T02:09:02.888Z,22.50
2018-07-30T02:11:31.351Z,22.50
2018-07-30T02:13:59.740Z,22.40
2018-07-30T02:16:28.239Z,22.40
2018-07-30T02:18:56.696Z,22.30
2018-07-30T02:21:25.242Z,22.10
2018-07-30T02:23:53.710Z,22.20
2018-07-30T02:26:22.103Z,22.10
2018-07-30T02:28:50.476Z,22.10
2018-07-30T02:31:18.957Z,22.10
2018-07-30T02:36:15.504Z,22.00
2018-07-30T02:38:43.827Z,21.90
2018-07-30T02:41:12.691Z,21.80
2018-07-30T02:43:41.095Z,21.80
2018-07-30T02:46:09.483Z,21.70
2018-07-30T02:48:38.202Z,21.60
2018-07-30T02:51:07.698Z,21.50
2018-07-30T02:53:36.454Z,21.40
2018-07-30T02:56:04.968Z,21.40
2018-07-30T02:58:33.348Z,21.30
2018-07-30T03:01:01.858Z,21.20
2018-07-30T03:03:30.256Z,21.20
2018-07-30T03:05:59.097Z,21.20
2018-07-30T03:08:28.076Z,21.30
2018-07-30T03:10:57.733Z,21.30
2018-07-30T03:13:27.221Z,21.40
2018-07-30T03:15:56.233Z,21.40
2018-07-30T03:18:24.629Z,21.30
2018-07-30T03:20:54.201Z,21.10
2018-07-30T03:23:23.103Z,21.00
2018-07-30T03:25:51.601Z,20.80
2018-07-30T03:28:19.967Z,20.80
2018-07-30T03:30:49.416Z,20.90
2018-07-30T03:33:17.798Z,21.00
2018-07-30T03:35:46.238Z,21.00
2018-07-30T03:38:14.644Z,20.90
2018-07-30T03:40:43.134Z,20.90
2018-07-30T03:43:11.500Z,20.80
2018-07-30T03:45:40.218Z,20.90
2018-07-30T03:48:09.023Z,20.90
2018-07-30T03:50:38.613Z,20.90
2018-07-30T03:53:07.312Z,20.90
2018-07-30T03:55:35.797Z,20.80
2018-07-30T03:58:04.397Z,20.70
2018-07-30T04:00:32.979Z,20.70
2018-07-30T04:03:01.326Z,20.60
2018-07-30T04:05:29.802Z,20.60
2018-07-30T04:07:58.295Z,20.60
2018-07-30T04:10:27.675Z,20.60
2018-07-30T04:12:56.202Z,20.50
2018-07-30T04:15:24.654Z,20.40
2018-07-30T04:17:52.994Z,20.40
2018-07-30T04:20:21.476Z,20.40
2018-07-30T04:22:50.329Z,20.30
2018-07-30T04:25:18.784Z,20.30
2018-07-30T04:27:47.159Z,20.30
2018-07-30T04:30:15.647Z,20.40
2018-07-30T04:32:44.022Z,20.30
2018-07-30T04:35:12.454Z,20.40
2018-07-30T04:37:40.831Z,20.30
2018-07-30T04:40:09.358Z,20.30
2018-07-30T04:42:37.779Z,20.20
2018-07-30T04:45:06.266Z,20.00
2018-07-30T04:47:34.794Z,20.00
2018-07-30T04:50:03.592Z,20.00
2018-07-30T04:52:31.981Z,20.10
2018-07-30T04:55:00.393Z,20.10
2018-07-30T04:57:29.128Z,20.10
2018-07-30T04:59:58.350Z,20.20
2018-07-30T05:02:27.472Z,20.10
2018-07-30T05:04:56.207Z,20.10
2018-07-30T05:07:24.598Z,20.00
2018-07-30T05:09:53.405Z,20.10
2018-07-30T05:12:21.751Z,20.10
2018-07-30T05:14:50.158Z,20.20
2018-07-30T05:17:18.608Z,20.20
2018-07-30T05:19:47.111Z,20.20
2018-07-30T05:22:15.513Z,20.30
2018-07-30T05:24:43.983Z,20.30
2018-07-30T05:27:12.374Z,20.30
2018-07-30T05:32:08.963Z,20.30
2018-07-30T05:34:37.316Z,20.40
2018-07-30T05:37:05.701Z,20.40
2018-07-30T05:39:34.299Z,20.50
2018-07-30T05:42:03.009Z,20.50
2018-07-30T05:44:31.463Z,20.50
2018-07-30T05:46:59.786Z,20.50
2018-07-30T05:49:28.486Z,20.60
2018-07-30T05:51:57.890Z,20.70
2018-07-30T05:54:26.985Z,20.70
2018-07-30T05:56:55.749Z,20.80
2018-07-30T05:59:24.137Z,20.80
2018-07-30T06:01:52.730Z,20.80
2018-07-30T06:04:21.279Z,20.90
2018-07-30T06:06:49.658Z,20.90
2018-07-30T06:09:18.077Z,21.00
2018-07-30T06:11:46.448Z,21.10
2018-07-30T06:14:14.954Z,21.10
2018-07-30T06:16:43.291Z,21.20
2018-07-30T06:19:11.754Z,21.20
2018-07-30T06:21:40.146Z,21.20
2018-07-30T06:24:08.760Z,21.20
2018-07-30T06:26:37.135Z,21.30
2018-07-30T06:29:05.643Z,21.40
2018-07-30T06:31:33.998Z,21.80
2018-07-30T06:34:02.433Z,21.80
2018-07-30T06:36:30.859Z,21.80
2018-07-30T06:38:59.282Z,21.80
2018-07-30T06:41:28.243Z,21.90
2018-07-30T06:43:56.656Z,21.80
2018-07-30T06:46:25.482Z,21.90
2018-07-30T06:48:53.979Z,21.90
2018-07-30T06:51:22.329Z,22.10
2018-07-30T06:53:50.799Z,22.10
2018-07-30T06:56:19.330Z,22.10
2018-07-30T06:58:47.748Z,22.10
2018-07-30T07:01:16.164Z,22.10
2018-07-30T07:03:44.964Z,22.00
2018-07-30T07:06:13.370Z,22.00
2018-07-30T07:08:41.815Z,22.00
2018-07-30T07:11:10.897Z,22.00
2018-07-30T07:13:39.373Z,22.00
2018-07-30T07:16:08.191Z,22.10
2018-07-30T07:18:36.626Z,22.10
2018-07-30T07:21:05.087Z,22.10
2018-07-30T07:23:33.584Z,22.10
2018-07-30T07:26:01.996Z,22.20
2018-07-30T07:28:30.425Z,22.30
2018-07-30T07:30:58.834Z,22.40
2018-07-30T07:33:27.271Z,22.40
2018-07-30T07:35:56.350Z,22.40
2018-07-30T07:38:24.868Z,22.60
2018-07-30T07:40:53.696Z,22.70
2018-07-30T07:43:22.513Z,22.80
2018-07-30T07:45:50.879Z,22.70
2018-07-30T07:48:19.315Z,22.80
2018-07-30T07:50:48.173Z,22.80
2018-07-30T07:53:16.920Z,23.10
2018-07-30T07:55:45.735Z,23.10
2018-07-30T07:58:14.299Z,23.10
2018-07-30T08:00:42.760Z,23.30
2018-07-30T08:03:11.474Z,23.20
2018-07-30T08:05:40.208Z,23.20
2018-07-30T08:08:08.974Z,23.30
2018-07-30T08:10:37.339Z,23.40
2018-07-30T08:13:06.286Z,23.40
2018-07-30T08:15:34.777Z,23.40
2018-07-30T08:18:03.478Z,23.40
2018-07-30T08:20:31.922Z,23.50
2018-07-30T08:26:02.954Z,23.80
2018-07-30T08:28:31.739Z,23.70
2018-07-30T08:32:25.225Z,23.80
2018-07-30T08:34:53.566Z,23.80
2018-07-30T08:37:22.005Z,23.90
2018-07-30T08:39:50.444Z,24.00
2018-07-30T08:42:18.851Z,24.10
2018-07-30T08:44:47.557Z,24.10
2018-07-30T08:47:16.006Z,24.10
2018-07-30T08:49:44.506Z,24.00
2018-07-30T08:52:13.503Z,24.10
2018-07-30T08:54:42.004Z,24.20
2018-07-30T08:57:10.470Z,24.30
2018-07-30T08:59:40.198Z,24.40
2018-07-30T09:02:08.596Z,24.40
2018-07-30T09:04:37.476Z,24.40
2018-07-30T09:07:05.917Z,24.40
2018-07-30T09:09:35.010Z,24.40
2018-07-30T09:12:03.462Z,24.40
2018-07-30T09:14:31.970Z,24.50
2018-07-30T09:17:01.026Z,24.80
2018-07-30T09:19:29.548Z,24.90
2018-07-30T09:21:58.551Z,25.00
2018-07-30T09:24:27.751Z,24.90
2018-07-30T09:26:56.802Z,25.00
2018-07-30T09:29:25.321Z,25.00
2018-07-30T09:31:53.723Z,25.10
2018-07-30T09:34:22.191Z,25.10
2018-07-30T09:36:50.601Z,25.10
2018-07-30T09:39:19.137Z,25.20
2018-07-30T09:41:47.690Z,25.20
2018-07-30T09:44:16.170Z,25.30
2018-07-30T09:46:44.639Z,25.40
2018-07-30T09:49:13.242Z,25.40
2018-07-30T09:51:41.784Z,25.60
2018-07-30T09:54:10.318Z,25.90
2018-07-30T09:56:38.730Z,25.80
2018-07-30T09:59:07.564Z,25.70
2018-07-30T10:01:35.993Z,25.60
2018-07-30T10:04:04.526Z,25.60
2018-07-30T10:06:33.013Z,26.00
2018-07-30T10:09:01.535Z,25.90
2018-07-30T10:11:30.041Z,25.90
2018-07-30T10:13:58.728Z,25.90
2018-07-30T10:16:27.190Z,25.90
2018-07-30T10:18:56.225Z,26.00
2018-07-30T10:21:24.707Z,26.00
2018-07-30T10:23:53.229Z,26.30
2018-07-30T10:26:21.728Z,26.30
2018-07-30T10:28:50.299Z,26.10
2018-07-30T10:31:18.846Z,26.20
2018-07-30T10:33:47.576Z,26.30
2018-07-30T10:36:16.099Z,26.10
2018-07-30T10:38:44.622Z,26.20
2018-07-30T10:41:13.449Z,26.30
2018-07-30T10:43:41.952Z,26.30
2018-07-30T10:46:10.564Z,26.40
2018-07-30T10:48:39.008Z,26.50
2018-07-30T10:51:07.605Z,26.40
2018-07-30T10:53:35.967Z,26.30
2018-07-30T10:56:04.416Z,26.40
2018-07-30T10:58:32.894Z,26.60
2018-07-30T11:01:02.428Z,26.70
2018-07-30T11:03:31.019Z,26.90
2018-07-30T11:05:59.452Z,27.10
2018-07-30T11:08:27.920Z,27.30
2018-07-30T11:10:56.999Z,27.10
2018-07-30T11:13:26.109Z,26.90
2018-07-30T11:15:54.788Z,27.10
2018-07-30T11:18:24.041Z,27.00
2018-07-30T11:20:52.487Z,27.00
2018-07-30T11:23:20.904Z,27.10
2018-07-30T11:25:49.285Z,27.10
2018-07-30T11:28:18.083Z,27.10
2018-07-30T11:30:46.680Z,27.20
2018-07-30T11:33:15.253Z,27.20
2018-07-30T11:35:43.791Z,27.20
2018-07-30T11:38:12.174Z,27.30
2018-07-30T11:40:41.678Z,27.30
2018-07-30T11:43:10.090Z,27.40
2018-07-30T11:45:39.471Z,27.40
2018-07-30T11:48:08.479Z,27.30
2018-07-30T11:50:37.891Z,27.30
2018-07-30T11:53:06.441Z,27.40
2018-07-30T11:55:34.867Z,27.40
2018-07-30T11:58:03.206Z,27.40
2018-07-30T12:03:00.002Z,27.50
2018-07-30T12:05:28.375Z,27.40
2018-07-30T12:07:57.262Z,27.60
2018-07-30T12:10:27.646Z,27.90
2018-07-30T12:12:56.266Z,28.20
2018-07-30T12:15:24.693Z,28.70
2018-07-30T12:17:53.094Z,29.00
2018-07-30T12:20:21.919Z,29.10
2018-07-30T12:22:50.330Z,29.10
2018-07-30T12:25:18.765Z,29.20
2018-07-30T12:27:47.235Z,29.10
2018-07-30T12:30:15.797Z,28.90
2018-07-30T12:32:44.296Z,28.60
2018-07-30T12:35:13.789Z,28.40
2018-07-30T12:37:42.167Z,28.30
2018-07-30T12:40:10.591Z,28.20
2018-07-30T12:42:38.993Z,28.20
2018-07-30T12:45:07.792Z,28.50
2018-07-30T12:47:36.147Z,28.60
2018-07-30T12:50:05.076Z,28.40
2018-07-30T12:52:33.472Z,28.40
2018-07-30T12:55:02.966Z,28.50
2018-07-30T12:57:31.494Z,28.60
2018-07-30T12:59:59.933Z,28.80
2018-07-30T13:02:28.440Z,28.90
2018-07-30T13:04:57.742Z,28.80
2018-07-30T13:07:27.976Z,28.90
2018-07-30T13:09:57.353Z,28.90
2018-07-30T13:12:26.321Z,28.90
2018-07-30T13:14:54.815Z,29.00
2018-07-30T13:17:23.354Z,29.00
2018-07-30T13:19:51.800Z,29.10
2018-07-30T13:22:20.218Z,29.20
2018-07-30T13:24:48.731Z,29.20
2018-07-30T13:27:17.311Z,29.10
2018-07-30T13:29:45.860Z,29.30
2018-07-30T13:32:14.401Z,29.60
2018-07-30T13:34:42.867Z,29.50
2018-07-30T13:37:11.429Z,29.40
2018-07-30T13:39:39.815Z,29.30
2018-07-30T13:42:08.280Z,29.30
2018-07-30T13:44:36.744Z,29.20
2018-07-30T13:47:05.943Z,29.10
2018-07-30T13:49:35.606Z,28.90
2018-07-30T13:52:04.799Z,28.80
2018-07-30T13:54:33.280Z,28.90
2018-07-30T13:57:01.915Z,29.00
2018-07-30T13:59:30.336Z,28.90
2018-07-30T14:01:58.771Z,29.10
2018-07-30T14:04:27.895Z,29.10
2018-07-30T14:06:57.808Z,29.10
2018-07-30T14:09:26.332Z,29.10
2018-07-30T14:11:54.706Z,29.40
2018-07-30T14:14:23.041Z,29.80
2018-07-30T14:16:51.474Z,29.90
2018-07-30T14:19:19.842Z,29.90
2018-07-30T14:21:48.363Z,29.80
2018-07-30T14:24:16.688Z,29.70
2018-07-30T14:26:45.113Z,29.60
2018-07-30T14:29:13.533Z,29.40
2018-07-30T14:31:42.049Z,29.30
2018-07-30T14:34:10.486Z,29.30
2018-07-30T14:36:38.976Z,29.40
2018-07-30T14:39:09.491Z,29.40
2018-07-30T14:41:37.973Z,29.30
2018-07-30T14:44:07.169Z,29.30
2018-07-30T14:46:36.055Z,29.30
2018-07-30T14:49:04.568Z,29.20
2018-07-30T14:51:33.210Z,29.30
2018-07-30T14:54:02.178Z,29.50
2018-07-30T14:56:30.649Z,29.60
2018-07-30T14:58:59.606Z,29.70
2018-07-30T15:01:28.896Z,29.90
2018-07-30T15:03:57.967Z,29.80
2018-07-30T15:06:28.390Z,29.80
2018-07-30T15:08:57.164Z,30.00
2018-07-30T15:11:26.448Z,30.20
2018-07-30T15:13:54.848Z,30.60
2018-07-30T15:16:23.348Z,30.60
2018-07-30T15:18:51.967Z,30.70
2018-07-30T15:21:21.476Z,30.90
2018-07-30T15:23:49.948Z,31.10
2018-07-30T15:26:18.392Z,31.20
2018-07-30T15:28:46.887Z,31.00
2018-07-30T15:31:15.737Z,31.00
2018-07-30T15:33:44.121Z,31.20
2018-07-30T15:36:12.569Z,31.20
2018-07-30T15:38:41.523Z,31.20
2018-07-30T15:41:10.554Z,31.30
2018-07-30T15:43:39.066Z,31.20
2018-07-30T15:46:07.989Z,31.20
2018-07-30T15:52:34.360Z,31.20
2018-07-30T15:55:03.909Z,31.00
2018-07-30T15:57:33.013Z,30.50
2018-07-30T16:02:30.509Z,30.00
2018-07-30T16:04:59.062Z,29.90
2018-07-30T16:07:28.139Z,29.70
2018-07-30T16:09:58.523Z,29.70
2018-07-30T16:12:27.939Z,29.60
2018-07-30T16:14:56.461Z,29.50
2018-07-30T16:17:24.788Z,29.60
2018-07-30T16:19:53.238Z,29.60
2018-07-30T16:22:21.675Z,29.70
2018-07-30T16:24:50.152Z,29.50
2018-07-30T16:27:18.506Z,29.50
2018-07-30T16:29:51.129Z,29.50
2018-07-30T16:32:20.365Z,29.50
2018-07-30T16:34:48.910Z,29.50
2018-07-30T16:37:17.406Z,29.50
2018-07-30T16:46:44.431Z,29.30
2018-07-30T16:49:12.955Z,28.90
2018-07-30T16:51:41.394Z,28.80
2018-07-30T16:54:09.836Z,28.80
2018-07-30T16:56:38.729Z,28.80
2018-07-30T16:59:07.135Z,28.80
2018-07-30T17:01:35.685Z,28.80
2018-07-30T17:04:04.122Z,28.80
2018-07-30T17:06:32.828Z,28.80
2018-07-30T17:09:01.260Z,28.80
2018-07-30T17:11:29.752Z,28.80
2018-07-30T17:13:58.548Z,28.70
2018-07-30T17:16:27.671Z,28.40
2018-07-30T17:18:56.658Z,28.30
2018-07-30T17:21:25.107Z,28.20
2018-07-30T17:23:53.475Z,28.10
2018-07-30T17:26:21.998Z,28.10
2018-07-30T17:28:50.439Z,28.10
2018-07-30T17:31:19.885Z,28.00
2018-07-30T17:33:48.287Z,27.90
2018-07-30T17:36:16.748Z,27.90
2018-07-30T17:38:45.184Z,27.80
2018-07-30T17:41:14.693Z,27.70
2018-07-30T17:43:43.062Z,27.60
2018-07-30T17:46:11.866Z,27.50
2018-07-30T17:48:40.325Z,27.40
2018-07-30T17:51:09.867Z,27.30
2018-07-30T17:53:38.294Z,27.20
2018-07-30T17:56:06.794Z,27.10
2018-07-30T17:58:35.143Z,27.00
2018-07-30T18:01:03.665Z,26.90
2018-07-30T18:03:32.114Z,26.90
2018-07-30T18:06:00.513Z,26.90
2018-07-30T18:08:28.939Z,26.80
2018-07-30T18:10:57.972Z,26.70
2018-07-30T18:13:26.521Z,26.60
2018-07-30T18:15:56.673Z,26.60
2018-07-30T18:18:25.058Z,26.50
2018-07-30T18:20:53.557Z,26.50
2018-07-30T18:23:21.908Z,26.40
2018-07-30T18:25:50.515Z,26.40
2018-07-30T18:28:19.169Z,26.30
2018-07-30T18:30:50.267Z,26.30
2018-07-30T18:33:18.653Z,26.20
2018-07-30T18:35:47.376Z,26.20
2018-07-30T18:38:15.745Z,26.20
2018-07-30T18:40:45.243Z,26.10
2018-07-30T18:43:13.839Z,26.10
2018-07-30T18:45:43.306Z,26.00
2018-07-30T18:48:11.755Z,25.90
2018-07-30T18:50:41.218Z,25.80
2018-07-30T18:53:10.007Z,25.80
2018-07-30T18:55:38.435Z,25.90
2018-07-30T18:58:06.813Z,25.80
2018-07-30T19:00:35.377Z,25.80
2018-07-30T19:03:03.820Z,25.70
2018-07-30T19:05:32.324Z,25.70
2018-07-30T19:08:00.689Z,25.70
2018-07-30T19:10:29.474Z,25.60
2018-07-30T19:12:58.733Z,25.60
2018-07-30T19:15:27.788Z,25.70
2018-07-30T19:17:56.761Z,25.70
2018-07-30T19:20:25.183Z,25.70
2018-07-30T19:22:53.647Z,25.80
2018-07-30T19:25:22.067Z,25.90
2018-07-30T19:27:50.472Z,25.90
2018-07-30T19:30:19.295Z,25.90
2018-07-30T19:32:47.700Z,25.90
2018-07-30T19:35:16.147Z,25.90
2018-07-30T19:37:44.822Z,25.90
2018-07-30T19:40:13.282Z,25.90
2018-07-30T19:42:41.693Z,25.90
2018-07-30T19:45:10.213Z,26.00
2018-07-30T19:47:38.615Z,25.90
2018-07-30T19:50:08.119Z,25.90
2018-07-30T19:52:36.869Z,25.90
2018-07-30T19:55:05.461Z,26.00
2018-07-30T19:57:33.951Z,25.90
2018-07-30T20:00:02.948Z,25.90
2018-07-30T20:02:31.295Z,25.80
2018-07-30T20:04:59.713Z,25.80
2018-07-30T20:07:28.834Z,25.80
2018-07-30T20:09:58.001Z,25.80
2018-07-30T20:12:26.556Z,25.80
2018-07-30T20:14:55.031Z,25.80
2018-07-30T20:17:23.443Z,25.70
2018-07-30T20:19:52.831Z,25.80
2018-07-30T20:22:21.242Z,25.70
2018-07-30T20:24:49.764Z,25.70
2018-07-30T20:27:18.325Z,25.60
2018-07-30T20:29:47.175Z,25.60
2018-07-30T20:32:15.595Z,25.60
2018-07-30T20:37:12.041Z,25.60
2018-07-30T20:42:09.613Z,25.60
2018-07-30T20:44:38.163Z,25.60
2018-07-30T20:47:06.706Z,25.60
2018-07-30T20:49:36.150Z,25.60
2018-07-30T20:52:04.608Z,25.60
2018-07-30T20:54:33.035Z,25.50
2018-07-30T20:57:01.476Z,25.60
2018-07-30T20:59:29.922Z,25.50
2018-07-30T21:01:58.810Z,25.50
2018-07-30T21:04:27.942Z,25.40
2018-07-30T21:06:57.436Z,25.40
2018-07-30T21:09:25.829Z,25.40
2018-07-30T21:11:54.194Z,25.40
2018-07-30T21:14:22.586Z,25.40
2018-07-30T21:16:50.938Z,25.40
2018-07-30T21:19:19.341Z,25.30
2018-07-30T21:21:48.056Z,25.30
2018-07-30T21:24:16.457Z,25.30
2018-07-30T21:26:44.871Z,25.30
2018-07-30T21:29:14.340Z,25.30
2018-07-30T21:31:42.776Z,25.20
2018-07-30T21:34:11.591Z,25.30
2018-07-30T21:36:40.041Z,25.30
2018-07-30T21:39:10.716Z,25.20
2018-07-30T21:41:39.824Z,25.20
2018-07-30T21:44:09.450Z,25.10
2018-07-30T21:46:38.424Z,25.20
2018-07-30T21:49:06.877Z,25.20
2018-07-30T21:51:35.243Z,25.20
2018-07-30T21:54:03.890Z,25.20
2018-07-30T21:56:32.479Z,25.10
2018-07-30T22:01:29.364Z,25.10
2018-07-30T22:03:58.534Z,25.00
2018-07-30T22:06:27.486Z,25.00
2018-07-30T22:08:56.610Z,25.00
2018-07-30T22:11:24.949Z,25.00
2018-07-30T22:13:53.388Z,25.00
2018-07-30T22:16:21.784Z,24.90
2018-07-30T22:18:50.196Z,24.90
2018-07-30T22:21:18.577Z,24.90
2018-07-30T22:23:47.022Z,24.80
2018-07-30T22:26:15.459Z,24.80
2018-07-30T22:31:11.987Z,24.60
2018-07-30T22:33:41.498Z,24.60
2018-07-30T22:36:09.881Z,24.60
2018-07-30T22:38:38.290Z,24.50
2018-07-30T22:41:06.883Z,24.40
2018-07-30T22:43:35.717Z,24.40
2018-07-30T22:46:04.234Z,24.30
2018-07-30T22:48:32.770Z,24.20
2018-07-30T22:51:01.172Z,24.20
2018-07-30T22:53:29.740Z,24.10
2018-07-30T22:55:58.855Z,24.00
2018-07-30T22:58:28.310Z,23.90
2018-07-30T23:00:56.779Z,24.00
2018-07-30T23:03:25.187Z,23.90
2018-07-30T23:05:53.537Z,23.90
2018-07-30T23:08:22.014Z,23.80
2018-07-30T23:10:50.428Z,23.70
2018-07-30T23:13:20.156Z,23.70
2018-07-30T23:15:48.550Z,23.70
2018-07-30T23:18:17.049Z,23.60
2018-07-30T23:20:45.441Z,23.70
2018-07-30T23:23:13.922Z,23.70
2018-07-30T23:25:42.627Z,23.60
2018-07-30T23:28:11.151Z,23.60
2018-07-30T23:30:39.649Z,23.50
2018-07-30T23:33:08.216Z,23.60
2018-07-30T23:35:36.606Z,23.60
2018-07-30T23:38:05.227Z,23.50
2018-07-30T23:40:33.670Z,23.60
2018-07-30T23:43:02.154Z,23.50
2018-07-30T23:45:30.528Z,23.50
2018-07-30T23:47:59.067Z,23.50
2018-07-30T23:50:28.401Z,23.50
2018-07-30T23:52:57.883Z,23.60
2018-07-30T23:55:26.790Z,23.60
2018-07-30T23:57:55.356Z,23.50
